Weather at Frankfurt am Main Airport

Public forecast

Using degrees Celsius for public forecast. Weather courtesy of forecast.io.

Current aviation weather report (METAR) for Frankfurt am Main Airport

Retrieved 2020/10/27 00:20 UTC (0 seconds ago):

EDDF 270020Z 21002KT 9999 SCT006 07/07 Q1008 NOSIG

Aviation forecast (TAF) for Frankfurt am Main Airport

Retrieved 2020-10-27 00:28 UTC (0 seconds ago):

TAF EDDF 262300Z 2700/2806 19008KT 9999 FEW008 SCT025 PROB30 TEMPO 2700/2708 BKN008 PROB40 TEMPO 2709/2718 21015G25KT BECMG 2722/2801 BKN025